createdAt,value
2018-12-14T00:00:05.472Z,980.34
2018-12-14T00:01:04.864Z,980.37
2018-12-14T00:02:04.791Z,980.59
2018-12-14T00:03:05.020Z,980.45
2018-12-14T00:04:04.988Z,980.18
2018-12-14T00:05:04.486Z,980.34
2018-12-14T00:06:04.693Z,980.31
2018-12-14T00:07:04.860Z,980.18
2018-12-14T00:08:05.252Z,980.29
2018-12-14T00:09:04.675Z,980.34
2018-12-14T00:10:05.063Z,980.29
2018-12-14T00:11:05.093Z,980.37
2018-12-14T00:12:04.646Z,980.26
2018-12-14T00:13:04.738Z,980.34
2018-12-14T00:14:05.121Z,980.34
2018-12-14T00:15:05.409Z,980.34
2018-12-14T00:16:04.578Z,980.31
2018-12-14T00:17:05.038Z,980.40
2018-12-14T00:18:04.799Z,980.37
2018-12-14T00:19:04.949Z,980.45
2018-12-14T00:20:05.059Z,980.43
2018-12-14T00:21:04.679Z,980.34
2018-12-14T00:22:04.888Z,980.43
2018-12-14T00:23:04.632Z,980.37
2018-12-14T00:24:04.856Z,980.37
2018-12-14T00:25:04.876Z,980.40
2018-12-14T00:26:05.025Z,980.37
2018-12-14T00:27:05.310Z,980.45
2018-12-14T00:28:10.462Z,980.45
2018-12-14T00:29:04.880Z,980.31
2018-12-14T00:30:05.169Z,980.40
2018-12-14T00:31:05.343Z,980.29
2018-12-14T00:32:05.032Z,980.45
2018-12-14T00:33:04.487Z,980.31
2018-12-14T00:34:04.879Z,980.31
2018-12-14T00:35:05.391Z,980.40
2018-12-14T00:36:04.947Z,980.37
2018-12-14T00:37:04.916Z,980.43
2018-12-14T00:38:05.031Z,980.48
2018-12-14T00:39:05.225Z,980.31
2018-12-14T00:40:04.514Z,980.40
2018-12-14T00:41:04.908Z,980.43
2018-12-14T00:42:05.143Z,980.43
2018-12-14T00:43:05.105Z,980.37
2018-12-14T00:44:05.429Z,980.37
2018-12-14T00:45:04.649Z,980.43
2018-12-14T00:46:04.786Z,980.29
2018-12-14T00:47:04.890Z,980.51
2018-12-14T00:48:05.243Z,980.48
2018-12-14T00:49:05.081Z,980.48
2018-12-14T00:50:04.782Z,980.37
2018-12-14T00:51:04.932Z,980.51
2018-12-14T00:52:05.588Z,980.40
2018-12-14T00:53:04.650Z,980.54
2018-12-14T00:54:09.783Z,980.45
2018-12-14T00:55:05.357Z,980.48
2018-12-14T00:56:04.960Z,980.40
2018-12-14T00:57:05.000Z,980.43
2018-12-14T00:58:05.169Z,980.43
2018-12-14T00:59:04.503Z,980.56
2018-12-14T01:00:04.760Z,980.51
2018-12-14T01:01:04.919Z,980.54
2018-12-14T01:02:05.485Z,980.54
2018-12-14T01:03:05.338Z,980.40
2018-12-14T01:04:05.615Z,980.48
2018-12-14T01:05:04.658Z,980.65
2018-12-14T01:06:05.138Z,980.51
2018-12-14T01:07:05.088Z,980.65
2018-12-14T01:08:05.384Z,980.65
2018-12-14T01:09:05.417Z,980.43
2018-12-14T01:10:05.093Z,980.59
2018-12-14T01:11:05.644Z,980.54
2018-12-14T01:12:04.617Z,980.65
2018-12-14T01:13:04.823Z,980.59
2018-12-14T01:14:04.905Z,980.65
2018-12-14T01:15:04.778Z,980.54
2018-12-14T01:16:04.886Z,980.65
2018-12-14T01:17:04.987Z,980.62
2018-12-14T01:18:04.700Z,980.65
2018-12-14T01:19:05.149Z,980.79
2018-12-14T01:20:04.994Z,980.65
2018-12-14T01:21:05.212Z,980.70
2018-12-14T01:22:05.273Z,980.90
2018-12-14T01:23:04.796Z,980.81
2018-12-14T01:24:04.931Z,980.81
2018-12-14T01:25:04.581Z,980.67
2018-12-14T01:26:04.780Z,980.65
2018-12-14T01:27:05.305Z,980.70
2018-12-14T01:28:04.826Z,980.68
2018-12-14T01:29:04.914Z,980.76
2018-12-14T01:30:05.187Z,980.73
2018-12-14T01:31:05.258Z,980.73
2018-12-14T01:32:05.396Z,980.65
2018-12-14T01:33:04.689Z,980.70
2018-12-14T01:34:05.033Z,980.76
2018-12-14T01:35:05.224Z,980.65
2018-12-14T01:36:04.625Z,980.65
2018-12-14T01:37:05.278Z,980.76
2018-12-14T01:38:06.172Z,980.73
2018-12-14T01:39:04.813Z,980.68
2018-12-14T01:40:04.832Z,980.79
2018-12-14T01:41:04.963Z,980.79
2018-12-14T01:42:05.386Z,980.65
2018-12-14T01:43:05.379Z,980.76
2018-12-14T01:44:04.774Z,980.76
2018-12-14T01:45:05.055Z,980.90
2018-12-14T01:46:04.693Z,980.90
2018-12-14T01:47:04.681Z,980.73
2018-12-14T01:48:04.935Z,980.76
2018-12-14T01:49:05.120Z,980.73
2018-12-14T01:50:05.273Z,980.73
2018-12-14T01:51:04.864Z,980.54
2018-12-14T01:52:04.885Z,980.57
2018-12-14T01:53:04.934Z,980.62
2018-12-14T01:54:04.968Z,980.48
2018-12-14T01:55:05.101Z,980.48
2018-12-14T01:56:04.714Z,980.57
2018-12-14T01:57:04.691Z,980.57
2018-12-14T01:58:05.351Z,980.73
2018-12-14T01:59:05.456Z,980.62
2018-12-14T02:00:04.707Z,980.65
2018-12-14T02:01:04.680Z,980.51
2018-12-14T02:02:04.868Z,980.54
2018-12-14T02:03:05.026Z,980.54
2018-12-14T02:04:05.595Z,980.74
2018-12-14T02:05:05.005Z,980.54
2018-12-14T02:06:05.395Z,980.54
2018-12-14T02:07:04.737Z,980.46
2018-12-14T02:08:04.983Z,980.51
2018-12-14T02:09:04.526Z,980.65
2018-12-14T02:10:04.848Z,980.51
2018-12-14T02:11:04.852Z,980.49
2018-12-14T02:12:11.677Z,980.49
2018-12-14T02:13:05.360Z,980.49
2018-12-14T02:14:05.006Z,980.46
2018-12-14T02:15:05.201Z,980.49
2018-12-14T02:16:05.346Z,980.57
2018-12-14T02:17:04.754Z,980.54
2018-12-14T02:18:05.020Z,980.65
2018-12-14T02:19:05.112Z,980.52
2018-12-14T02:20:05.249Z,980.49
2018-12-14T02:21:05.378Z,980.49
2018-12-14T02:22:04.636Z,980.54
2018-12-14T02:23:04.881Z,980.49
2018-12-14T02:24:05.033Z,980.63
2018-12-14T02:25:05.223Z,980.60
2018-12-14T02:26:04.756Z,980.46
2018-12-14T02:27:04.850Z,980.60
2018-12-14T02:28:10.110Z,980.49
2018-12-14T02:29:04.747Z,980.52
2018-12-14T02:30:05.187Z,980.63
2018-12-14T02:31:05.566Z,980.54
2018-12-14T02:32:04.630Z,980.52
2018-12-14T02:33:04.885Z,980.63
2018-12-14T02:34:04.761Z,980.49
2018-12-14T02:35:04.846Z,980.63
2018-12-14T02:36:05.064Z,980.49
2018-12-14T02:37:04.550Z,980.60
2018-12-14T02:38:05.016Z,980.57
2018-12-14T02:39:05.045Z,980.68
2018-12-14T02:40:05.363Z,980.60
2018-12-14T02:41:05.485Z,980.68
2018-12-14T02:42:05.402Z,980.55
2018-12-14T02:43:04.581Z,980.55
2018-12-14T02:44:04.814Z,980.49
2018-12-14T02:45:05.616Z,980.49
2018-12-14T02:46:04.775Z,980.49
2018-12-14T02:47:05.184Z,980.43
2018-12-14T02:48:10.455Z,980.49
2018-12-14T02:49:04.848Z,980.63
2018-12-14T02:50:05.414Z,980.52
2018-12-14T02:51:04.627Z,980.63
2018-12-14T02:52:05.179Z,980.57
2018-12-14T02:53:05.304Z,980.54
2018-12-14T02:54:05.329Z,980.57
2018-12-14T02:55:04.593Z,980.52
2018-12-14T02:56:05.340Z,980.43
2018-12-14T02:57:04.702Z,980.46
2018-12-14T02:58:05.012Z,980.54
2018-12-14T02:59:05.286Z,980.49
2018-12-14T03:00:05.384Z,980.52
2018-12-14T03:01:05.249Z,980.52
2018-12-14T03:02:05.205Z,980.60
2018-12-14T03:03:05.315Z,980.60
2018-12-14T03:04:04.880Z,980.60
2018-12-14T03:05:05.063Z,980.66
2018-12-14T03:06:05.335Z,980.80
2018-12-14T03:07:04.767Z,980.57
2018-12-14T03:08:05.343Z,980.63
2018-12-14T03:09:05.414Z,980.52
2018-12-14T03:10:04.761Z,980.55
2018-12-14T03:11:05.094Z,980.49
2018-12-14T03:12:05.227Z,980.49
2018-12-14T03:13:05.343Z,980.49
2018-12-14T03:14:04.771Z,980.57
2018-12-14T03:15:04.695Z,980.41
2018-12-14T03:16:05.008Z,980.66
2018-12-14T03:17:05.281Z,980.35
2018-12-14T03:18:05.398Z,980.52
2018-12-14T03:19:04.992Z,980.46
2018-12-14T03:20:05.136Z,980.43
2018-12-14T03:21:05.297Z,980.38
2018-12-14T03:22:04.573Z,980.55
2018-12-14T03:23:04.689Z,980.46
2018-12-14T03:24:04.951Z,980.38
2018-12-14T03:25:05.389Z,980.35
2018-12-14T03:26:05.597Z,980.43
2018-12-14T03:27:04.500Z,980.55
2018-12-14T03:28:10.187Z,980.35
2018-12-14T03:29:04.664Z,980.46
2018-12-14T03:30:04.881Z,980.43
2018-12-14T03:31:05.283Z,980.41
2018-12-14T03:32:04.660Z,980.46
2018-12-14T03:33:04.663Z,980.41
2018-12-14T03:34:05.460Z,980.35
2018-12-14T03:35:04.738Z,980.52
2018-12-14T03:36:04.846Z,980.52
2018-12-14T03:37:05.211Z,980.49
2018-12-14T03:38:05.526Z,980.57
2018-12-14T03:39:04.598Z,980.60
2018-12-14T03:40:05.210Z,980.49
2018-12-14T03:41:05.317Z,980.43
2018-12-14T03:42:05.001Z,980.46
2018-12-14T03:43:05.423Z,980.52
2018-12-14T03:44:05.099Z,980.35
2018-12-14T03:45:05.156Z,980.52
2018-12-14T03:46:05.407Z,980.60
2018-12-14T03:47:04.569Z,980.57
2018-12-14T03:48:05.052Z,980.60
2018-12-14T03:49:05.196Z,980.46
2018-12-14T03:50:05.260Z,980.55
2018-12-14T03:51:04.999Z,980.46
2018-12-14T03:52:05.024Z,980.49
2018-12-14T03:53:04.625Z,980.43
2018-12-14T03:54:04.815Z,980.38
2018-12-14T03:55:05.095Z,980.46
2018-12-14T03:56:04.621Z,980.41
2018-12-14T03:57:04.885Z,980.52
2018-12-14T03:58:05.397Z,980.52
2018-12-14T03:59:04.549Z,980.55
2018-12-14T04:00:05.242Z,980.49
2018-12-14T04:01:05.366Z,980.49
2018-12-14T04:02:04.759Z,980.46
2018-12-14T04:03:04.897Z,980.54
2018-12-14T04:04:05.080Z,980.46
2018-12-14T04:05:05.280Z,980.52
2018-12-14T04:06:04.718Z,980.40
2018-12-14T04:07:05.321Z,980.63
2018-12-14T04:08:04.599Z,980.52
2018-12-14T04:09:04.880Z,980.57
2018-12-14T04:10:05.022Z,980.49
2018-12-14T04:11:05.399Z,980.60
2018-12-14T04:12:04.647Z,980.60
2018-12-14T04:13:04.941Z,980.60
2018-12-14T04:14:05.155Z,980.52
2018-12-14T04:15:04.510Z,980.60
2018-12-14T04:16:04.831Z,980.46
2018-12-14T04:17:05.142Z,980.74
2018-12-14T04:18:04.609Z,980.74
2018-12-14T04:19:04.989Z,980.57
2018-12-14T04:20:05.385Z,980.63
2018-12-14T04:21:05.605Z,980.77
2018-12-14T04:22:04.633Z,980.65
2018-12-14T04:23:05.356Z,980.57
2018-12-14T04:24:05.015Z,980.74
2018-12-14T04:25:05.077Z,980.63
2018-12-14T04:26:05.571Z,980.65
2018-12-14T04:27:04.768Z,980.65
2018-12-14T04:28:04.883Z,980.60
2018-12-14T04:29:05.492Z,980.60
2018-12-14T04:30:05.462Z,980.57
2018-12-14T04:31:04.621Z,980.54
2018-12-14T04:32:05.361Z,980.74
2018-12-14T04:33:05.502Z,980.65
2018-12-14T04:34:04.705Z,980.71
2018-12-14T04:35:04.915Z,980.68
2018-12-14T04:36:09.970Z,980.65
2018-12-14T04:37:05.432Z,980.54
2018-12-14T04:38:04.902Z,980.49
2018-12-14T04:39:05.706Z,980.79
2018-12-14T04:40:04.726Z,980.57
2018-12-14T04:41:04.791Z,980.74
2018-12-14T04:42:04.958Z,980.85
2018-12-14T04:43:05.361Z,980.79
2018-12-14T04:44:04.981Z,980.68
2018-12-14T04:45:05.075Z,980.65
2018-12-14T04:46:04.744Z,980.65
2018-12-14T04:47:04.836Z,980.77
2018-12-14T04:48:04.686Z,980.74
2018-12-14T04:49:05.194Z,980.71
2018-12-14T04:50:05.339Z,980.74
2018-12-14T04:51:04.531Z,980.71
2018-12-14T04:52:05.047Z,980.65
2018-12-14T04:53:05.489Z,980.71
2018-12-14T04:54:04.608Z,980.63
2018-12-14T04:55:04.864Z,980.63
2018-12-14T04:56:04.864Z,980.71
2018-12-14T04:57:05.392Z,980.52
2018-12-14T04:58:05.425Z,980.63
2018-12-14T04:59:04.606Z,980.71
2018-12-14T05:00:05.003Z,980.71
2018-12-14T05:01:05.181Z,980.60
2018-12-14T05:02:04.744Z,980.60
2018-12-14T05:03:04.968Z,980.65
2018-12-14T05:04:05.266Z,980.63
2018-12-14T05:05:05.502Z,980.63
2018-12-14T05:06:04.999Z,980.71
2018-12-14T05:07:05.112Z,980.60
2018-12-14T05:08:05.106Z,980.77
2018-12-14T05:09:05.380Z,980.55
2018-12-14T05:10:05.558Z,980.55
2018-12-14T05:11:04.699Z,980.63
2018-12-14T05:12:04.921Z,980.66
2018-12-14T05:13:05.359Z,980.55
2018-12-14T05:14:04.492Z,980.57
2018-12-14T05:15:04.804Z,980.60
2018-12-14T05:16:05.426Z,980.66
2018-12-14T05:17:04.786Z,980.69
2018-12-14T05:18:05.253Z,980.60
2018-12-14T05:19:05.262Z,980.83
2018-12-14T05:20:04.941Z,980.63
2018-12-14T05:21:05.003Z,980.66
2018-12-14T05:22:05.249Z,980.55
2018-12-14T05:23:05.436Z,980.74
2018-12-14T05:24:05.159Z,980.66
2018-12-14T05:25:05.891Z,980.63
2018-12-14T05:26:05.373Z,980.69
2018-12-14T05:27:05.162Z,980.74
2018-12-14T05:28:10.211Z,980.61
2018-12-14T05:29:04.892Z,980.63
2018-12-14T05:30:04.798Z,980.72
2018-12-14T05:31:04.990Z,980.75
2018-12-14T05:32:05.093Z,980.72
2018-12-14T05:33:05.322Z,980.75
2018-12-14T05:34:04.744Z,980.69
2018-12-14T05:35:05.242Z,980.75
2018-12-14T05:36:04.772Z,980.72
2018-12-14T05:37:04.757Z,980.80
2018-12-14T05:38:04.816Z,980.58
2018-12-14T05:39:05.312Z,980.69
2018-12-14T05:40:05.417Z,980.75
2018-12-14T05:41:04.704Z,980.80
2018-12-14T05:42:05.199Z,980.66
2018-12-14T05:43:05.546Z,980.66
2018-12-14T05:44:04.944Z,980.78
2018-12-14T05:45:05.595Z,980.69
2018-12-14T05:46:05.146Z,980.61
2018-12-14T05:47:05.472Z,980.72
2018-12-14T05:48:04.784Z,980.64
2018-12-14T05:49:04.879Z,980.64
2018-12-14T05:50:05.255Z,980.86
2018-12-14T05:51:04.571Z,980.66
2018-12-14T05:52:04.659Z,980.69
2018-12-14T05:53:04.818Z,980.69
2018-12-14T05:54:05.468Z,980.64
2018-12-14T05:55:05.141Z,980.69
2018-12-14T05:56:05.508Z,980.75
2018-12-14T05:57:04.943Z,980.72
2018-12-14T05:58:05.447Z,980.72
2018-12-14T05:59:05.111Z,980.64
2018-12-14T06:00:05.325Z,980.69
2018-12-14T06:01:04.619Z,980.72
2018-12-14T06:02:05.078Z,980.64
2018-12-14T06:03:05.263Z,980.58
2018-12-14T06:04:05.500Z,980.61
2018-12-14T06:05:04.677Z,980.83
2018-12-14T06:06:04.987Z,980.78
2018-12-14T06:07:05.377Z,980.78
2018-12-14T06:08:05.451Z,980.67
2018-12-14T06:09:04.536Z,980.86
2018-12-14T06:10:04.664Z,980.78
2018-12-14T06:11:05.228Z,980.69
2018-12-14T06:12:05.645Z,980.69
2018-12-14T06:13:09.547Z,980.75
2018-12-14T06:14:05.369Z,980.75
2018-12-14T06:15:05.415Z,980.86
2018-12-14T06:16:05.321Z,980.83
2018-12-14T06:17:04.935Z,980.89
2018-12-14T06:18:05.306Z,980.86
2018-12-14T06:19:04.498Z,981.11
2018-12-14T06:20:05.446Z,981.03
2018-12-14T06:21:05.605Z,981.03
2018-12-14T06:22:05.191Z,980.97
2018-12-14T06:23:04.810Z,981.06
2018-12-14T06:24:04.970Z,981.08
2018-12-14T06:25:05.417Z,981.20
2018-12-14T06:26:05.618Z,981.11
2018-12-14T06:27:05.297Z,980.97
2018-12-14T06:28:04.647Z,981.00
2018-12-14T06:29:04.823Z,981.06
2018-12-14T06:30:04.980Z,981.08
2018-12-14T06:31:05.409Z,981.11
2018-12-14T06:32:04.840Z,981.20
2018-12-14T06:33:05.016Z,981.17
2018-12-14T06:34:05.144Z,981.03
2018-12-14T06:35:05.357Z,981.11
2018-12-14T06:36:04.812Z,981.00
2018-12-14T06:37:05.145Z,980.92
2018-12-14T06:38:05.112Z,981.06
2018-12-14T06:39:04.653Z,981.00
2018-12-14T06:40:05.134Z,981.03
2018-12-14T06:41:04.617Z,981.14
2018-12-14T06:42:05.494Z,980.97
2018-12-14T06:43:04.952Z,981.14
2018-12-14T06:44:05.227Z,981.00
2018-12-14T06:45:05.380Z,981.14
2018-12-14T06:46:04.696Z,981.11
2018-12-14T06:47:04.618Z,981.00
2018-12-14T06:48:10.270Z,981.03
2018-12-14T06:49:04.768Z,981.03
2018-12-14T06:50:05.535Z,981.23
2018-12-14T06:51:05.039Z,981.03
2018-12-14T06:52:05.242Z,981.06
2018-12-14T06:53:05.530Z,981.23
2018-12-14T06:54:04.650Z,981.17
2018-12-14T06:55:04.756Z,980.89
2018-12-14T06:56:05.229Z,981.09
2018-12-14T06:57:04.893Z,981.14
2018-12-14T06:58:05.468Z,981.14
2018-12-14T06:59:04.730Z,981.17
2018-12-14T07:00:05.178Z,981.12
2018-12-14T07:01:04.617Z,981.23
2018-12-14T07:02:04.706Z,981.23
2018-12-14T07:03:05.095Z,981.26
2018-12-14T07:04:05.271Z,981.14
2018-12-14T07:05:04.723Z,981.09
2018-12-14T07:06:05.168Z,981.14
2018-12-14T07:07:05.325Z,981.39
2018-12-14T07:08:04.611Z,981.31
2018-12-14T07:09:04.740Z,981.15
2018-12-14T07:10:04.975Z,981.23
2018-12-14T07:11:05.520Z,981.26
2018-12-14T07:12:04.723Z,981.09
2018-12-14T07:13:04.741Z,981.15
2018-12-14T07:14:05.879Z,981.37
2018-12-14T07:15:04.847Z,981.31
2018-12-14T07:16:05.194Z,981.40
2018-12-14T07:17:05.322Z,981.42
2018-12-14T07:18:04.697Z,981.37
2018-12-14T07:19:04.740Z,981.56
2018-12-14T07:20:04.962Z,981.42
2018-12-14T07:21:05.046Z,981.31
2018-12-14T07:22:05.290Z,981.40
2018-12-14T07:23:05.431Z,981.45
2018-12-14T07:24:04.512Z,981.42
2018-12-14T07:25:04.931Z,981.72
2018-12-14T07:26:05.377Z,981.48
2018-12-14T07:27:05.465Z,981.58
2018-12-14T07:28:09.571Z,981.53
2018-12-14T07:29:05.270Z,981.58
2018-12-14T07:30:05.366Z,981.58
2018-12-14T07:31:04.796Z,981.63
2018-12-14T07:32:05.079Z,981.63
2018-12-14T07:33:04.658Z,981.63
2018-12-14T07:34:05.102Z,981.56
2018-12-14T07:35:05.103Z,981.66
2018-12-14T07:36:05.281Z,981.64
2018-12-14T07:37:05.414Z,981.61
2018-12-14T07:38:04.652Z,981.61
2018-12-14T07:39:04.693Z,981.48
2018-12-14T07:40:05.291Z,981.56
2018-12-14T07:41:05.607Z,981.42
2018-12-14T07:42:05.106Z,981.72
2018-12-14T07:43:05.250Z,981.64
2018-12-14T07:44:05.652Z,981.51
2018-12-14T07:45:05.521Z,981.80
2018-12-14T07:46:04.498Z,981.64
2018-12-14T07:47:11.907Z,981.61
2018-12-14T07:48:04.598Z,981.75
2018-12-14T07:49:04.772Z,981.66
2018-12-14T07:50:05.417Z,981.64
2018-12-14T07:51:04.677Z,981.75
2018-12-14T07:52:05.207Z,981.54
2018-12-14T07:53:09.623Z,981.61
2018-12-14T07:54:04.793Z,981.75
2018-12-14T07:55:05.356Z,981.80
2018-12-14T07:56:04.638Z,981.69
2018-12-14T07:57:04.653Z,981.69
2018-12-14T07:58:04.939Z,981.75
2018-12-14T07:59:05.182Z,981.78
2018-12-14T08:00:05.051Z,981.83
2018-12-14T08:01:09.948Z,981.89
2018-12-14T08:02:05.485Z,981.83
2018-12-14T08:03:05.006Z,981.69
2018-12-14T08:04:04.553Z,982.03
2018-12-14T08:05:04.626Z,981.97
2018-12-14T08:06:05.220Z,981.94
2018-12-14T08:07:05.261Z,981.86
2018-12-14T08:08:05.239Z,981.75
2018-12-14T08:09:04.983Z,981.86
2018-12-14T08:10:04.618Z,982.00
2018-12-14T08:11:04.797Z,981.89
2018-12-14T08:12:04.714Z,981.94
2018-12-14T08:13:05.189Z,981.97
2018-12-14T08:14:05.489Z,982.08
2018-12-14T08:15:11.080Z,981.97
2018-12-14T08:16:04.613Z,982.00
2018-12-14T08:17:04.992Z,982.00
2018-12-14T08:18:05.303Z,982.00
2018-12-14T08:19:06.321Z,982.11
2018-12-14T08:20:05.451Z,981.97
2018-12-14T08:21:04.765Z,982.00
2018-12-14T08:22:04.815Z,982.00
2018-12-14T08:23:05.058Z,981.94
2018-12-14T08:24:04.650Z,982.19
2018-12-14T08:25:04.961Z,982.19
2018-12-14T08:26:05.075Z,982.11
2018-12-14T08:27:05.593Z,982.05
2018-12-14T08:28:04.585Z,982.11
2018-12-14T08:29:04.949Z,982.19
2018-12-14T08:30:05.146Z,982.13
2018-12-14T08:31:05.504Z,982.16
2018-12-14T08:32:05.444Z,982.11
2018-12-14T08:33:05.274Z,981.99
2018-12-14T08:34:04.711Z,982.08
2018-12-14T08:35:09.888Z,982.16
2018-12-14T08:36:05.316Z,982.22
2018-12-14T08:37:05.425Z,982.19
2018-12-14T08:38:04.625Z,982.22
2018-12-14T08:39:04.811Z,982.13
2018-12-14T08:40:04.892Z,982.08
2018-12-14T08:41:04.536Z,982.19
2018-12-14T08:42:04.776Z,982.19
2018-12-14T08:43:05.049Z,982.13
2018-12-14T08:44:05.235Z,982.30
2018-12-14T08:45:04.612Z,982.24
2018-12-14T08:46:04.781Z,982.32
2018-12-14T08:47:05.125Z,982.24
2018-12-14T08:48:05.314Z,982.30
2018-12-14T08:49:05.371Z,982.27
2018-12-14T08:50:05.867Z,982.43
2018-12-14T08:51:05.514Z,982.32
2018-12-14T08:52:04.617Z,982.32
2018-12-14T08:53:04.717Z,982.35
2018-12-14T08:54:05.443Z,982.43
2018-12-14T08:55:05.622Z,982.43
2018-12-14T08:56:04.612Z,982.38
2018-12-14T08:57:05.230Z,982.54
2018-12-14T08:58:05.588Z,982.49
2018-12-14T08:59:05.187Z,982.46
2018-12-14T09:00:05.407Z,982.46
2018-12-14T09:01:04.852Z,982.54
2018-12-14T09:02:04.559Z,982.38
2018-12-14T09:03:05.221Z,982.29
2018-12-14T09:04:04.838Z,982.26
2018-12-14T09:05:05.105Z,982.62
2018-12-14T09:06:05.440Z,982.60
2018-12-14T09:07:05.499Z,982.43
2018-12-14T09:08:04.679Z,982.60
2018-12-14T09:09:04.650Z,982.46
2018-12-14T09:10:04.930Z,982.54
2018-12-14T09:11:05.296Z,982.43
2018-12-14T09:12:04.541Z,982.49
2018-12-14T09:13:04.963Z,982.57
2018-12-14T09:14:05.020Z,982.40
2018-12-14T09:15:04.658Z,982.54
2018-12-14T09:16:04.858Z,982.48
2018-12-14T09:17:04.666Z,982.46
2018-12-14T09:18:05.397Z,982.51
2018-12-14T09:19:05.602Z,982.57
2018-12-14T09:20:04.756Z,982.62
2018-12-14T09:21:04.671Z,982.62
2018-12-14T09:22:05.179Z,982.62
2018-12-14T09:23:04.777Z,982.43
2018-12-14T09:24:05.382Z,982.54
2018-12-14T09:25:05.411Z,982.59
2018-12-14T09:26:05.480Z,982.48
2018-12-14T09:27:05.214Z,982.48
2018-12-14T09:28:10.266Z,982.67
2018-12-14T09:29:04.808Z,982.65
2018-12-14T09:30:04.808Z,982.51
2018-12-14T09:31:05.431Z,982.53
2018-12-14T09:32:04.544Z,982.37
2018-12-14T09:33:05.094Z,982.48
2018-12-14T09:34:05.378Z,982.59
2018-12-14T09:35:04.684Z,982.62
2018-12-14T09:36:04.817Z,982.62
2018-12-14T09:37:04.946Z,982.48
2018-12-14T09:38:05.317Z,982.73
2018-12-14T09:39:05.308Z,982.53
2018-12-14T09:40:05.264Z,982.53
2018-12-14T09:41:05.519Z,982.56
2018-12-14T09:42:04.894Z,982.47
2018-12-14T09:43:04.987Z,982.36
2018-12-14T09:44:05.238Z,982.59
2018-12-14T09:45:04.509Z,982.61
2018-12-14T09:46:04.882Z,982.70
2018-12-14T09:47:05.041Z,982.56
2018-12-14T09:48:04.785Z,982.69
2018-12-14T09:49:05.258Z,982.44
2018-12-14T09:50:04.627Z,982.55
2018-12-14T09:51:05.187Z,982.64
2018-12-14T09:52:04.883Z,982.61
2018-12-14T09:53:04.831Z,982.50
2018-12-14T09:54:04.897Z,982.61
2018-12-14T09:55:05.083Z,982.53
2018-12-14T09:56:04.642Z,982.64
2018-12-14T09:57:05.111Z,982.58
2018-12-14T09:58:05.256Z,982.50
2018-12-14T09:59:05.517Z,982.41
2018-12-14T10:00:04.586Z,982.55
2018-12-14T10:01:05.359Z,982.50
2018-12-14T10:02:04.875Z,982.55
2018-12-14T10:03:05.247Z,982.63
2018-12-14T10:04:04.710Z,982.63
2018-12-14T10:05:04.871Z,982.44
2018-12-14T10:06:05.340Z,982.55
2018-12-14T10:07:04.679Z,982.52
2018-12-14T10:08:04.894Z,982.49
2018-12-14T10:09:04.943Z,982.44
2018-12-14T10:10:05.154Z,982.35
2018-12-14T10:11:05.159Z,982.47
2018-12-14T10:12:05.292Z,982.41
2018-12-14T10:13:05.571Z,982.44
2018-12-14T10:14:04.523Z,982.44
2018-12-14T10:15:05.140Z,982.41
2018-12-14T10:16:05.340Z,982.30
2018-12-14T10:17:04.662Z,982.41
2018-12-14T10:18:05.176Z,982.52
2018-12-14T10:19:04.664Z,982.30
2018-12-14T10:20:04.812Z,982.35
2018-12-14T10:21:04.911Z,982.27
2018-12-14T10:22:05.312Z,982.35
2018-12-14T10:23:05.355Z,982.43
2018-12-14T10:24:04.551Z,982.32
2018-12-14T10:25:04.916Z,982.32
2018-12-14T10:26:05.307Z,982.24
2018-12-14T10:27:05.224Z,982.38
2018-12-14T10:28:09.618Z,982.49
2018-12-14T10:29:05.120Z,982.32
2018-12-14T10:30:05.543Z,982.52
2018-12-14T10:31:04.875Z,982.29
2018-12-14T10:32:05.283Z,982.18
2018-12-14T10:33:04.637Z,982.29
2018-12-14T10:34:04.727Z,982.32
2018-12-14T10:35:05.172Z,982.51
2018-12-14T10:36:05.180Z,982.35
2018-12-14T10:37:04.821Z,982.43
2018-12-14T10:38:04.903Z,982.38
2018-12-14T10:39:05.487Z,982.38
2018-12-14T10:40:04.945Z,982.35
2018-12-14T10:41:05.459Z,982.35
2018-12-14T10:42:04.803Z,982.43
2018-12-14T10:43:04.909Z,982.29
2018-12-14T10:44:08.085Z,982.35
2018-12-14T10:45:04.817Z,982.35
2018-12-14T10:46:05.281Z,982.32
2018-12-14T10:47:04.547Z,982.18
2018-12-14T10:48:09.918Z,982.40
2018-12-14T10:49:05.477Z,982.32
2018-12-14T10:50:04.805Z,982.32
2018-12-14T10:51:04.493Z,982.26
2018-12-14T10:52:04.727Z,982.18
2018-12-14T10:53:05.103Z,982.29
2018-12-14T10:54:04.954Z,982.31
2018-12-14T10:55:05.172Z,982.29
2018-12-14T10:56:05.346Z,982.37
2018-12-14T10:57:05.412Z,982.23
2018-12-14T10:58:05.517Z,982.34
2018-12-14T10:59:05.456Z,982.26
2018-12-14T11:00:04.659Z,982.12
2018-12-14T11:01:04.909Z,982.17
2018-12-14T11:02:04.881Z,982.34
2018-12-14T11:03:05.004Z,982.31
2018-12-14T11:04:04.587Z,982.29
2018-12-14T11:05:04.621Z,982.26
2018-12-14T11:06:05.000Z,982.28
2018-12-14T11:07:05.615Z,982.26
2018-12-14T11:08:05.096Z,982.14
2018-12-14T11:09:05.372Z,982.23
2018-12-14T11:10:04.743Z,982.28
2018-12-14T11:11:05.385Z,982.26
2018-12-14T11:12:04.658Z,982.37
2018-12-14T11:13:04.985Z,982.31
2018-12-14T11:14:05.151Z,982.39
2018-12-14T11:15:04.825Z,982.31
2018-12-14T11:16:05.130Z,982.14
2018-12-14T11:17:05.296Z,982.17
2018-12-14T11:18:05.572Z,982.20
2018-12-14T11:19:04.991Z,982.31
2018-12-14T11:20:05.195Z,982.28
2018-12-14T11:21:04.859Z,982.23
2018-12-14T11:22:05.060Z,982.31
2018-12-14T11:23:05.371Z,982.45
2018-12-14T11:24:05.263Z,982.25
2018-12-14T11:25:05.604Z,982.31
2018-12-14T11:26:04.731Z,982.25
2018-12-14T11:27:05.122Z,982.22
2018-12-14T11:28:10.372Z,982.17
2018-12-14T11:29:04.881Z,982.31
2018-12-14T11:30:05.457Z,982.25
2018-12-14T11:31:04.938Z,982.28
2018-12-14T11:32:05.440Z,982.28
2018-12-14T11:33:04.826Z,982.28
2018-12-14T11:34:05.084Z,982.19
2018-12-14T11:35:05.162Z,982.17
2018-12-14T11:36:05.409Z,982.25
2018-12-14T11:37:05.471Z,982.16
2018-12-14T11:38:04.655Z,982.28
2018-12-14T11:39:04.821Z,982.22
2018-12-14T11:40:04.844Z,982.16
2018-12-14T11:41:04.951Z,982.25
2018-12-14T11:42:05.269Z,982.22
2018-12-14T11:43:05.363Z,982.22
2018-12-14T11:44:04.655Z,982.16
2018-12-14T11:45:04.735Z,982.25
2018-12-14T11:46:04.853Z,982.25
2018-12-14T11:47:04.902Z,982.28
2018-12-14T11:48:10.674Z,982.28
2018-12-14T11:49:05.183Z,982.41
2018-12-14T11:50:04.701Z,982.39
2018-12-14T11:51:05.117Z,982.33
2018-12-14T11:52:05.330Z,982.28
2018-12-14T11:53:04.536Z,982.28
2018-12-14T11:54:05.367Z,982.36
2018-12-14T11:55:05.323Z,982.33
2018-12-14T11:56:05.505Z,982.41
2018-12-14T11:57:04.652Z,982.42
2018-12-14T11:58:04.783Z,982.30
2018-12-14T11:59:04.985Z,982.47
2018-12-14T12:00:04.968Z,982.30
2018-12-14T12:01:04.655Z,982.39
2018-12-14T12:02:04.822Z,982.33
2018-12-14T12:03:04.828Z,982.36
2018-12-14T12:04:04.975Z,982.22
2018-12-14T12:05:05.177Z,982.25
2018-12-14T12:06:04.608Z,982.36
2018-12-14T12:07:04.852Z,982.36
2018-12-14T12:08:05.391Z,982.25
2018-12-14T12:09:04.780Z,982.28
2018-12-14T12:10:05.075Z,982.30
2018-12-14T12:11:04.496Z,982.25
2018-12-14T12:12:04.881Z,982.28
2018-12-14T12:13:05.139Z,982.36
2018-12-14T12:14:04.879Z,982.36
2018-12-14T12:15:04.948Z,982.36
2018-12-14T12:16:05.516Z,982.30
2018-12-14T12:17:04.951Z,982.47
2018-12-14T12:18:05.122Z,982.33
2018-12-14T12:19:04.915Z,982.41
2018-12-14T12:20:05.096Z,982.33
2018-12-14T12:21:05.191Z,982.36
2018-12-14T12:22:04.664Z,982.39
2018-12-14T12:23:04.613Z,982.42
2018-12-14T12:24:05.459Z,982.22
2018-12-14T12:25:04.598Z,982.28
2018-12-14T12:26:04.934Z,982.44
2018-12-14T12:27:05.276Z,982.47
2018-12-14T12:28:10.483Z,982.22